Time;durP1;ratioP1;P1;durP2;ratioP2;P2;SDS_P1;SDS_P2;PMS_P1;PMS_P2;Temp;Humidity;BMP_temperature;BMP_pressure;BME280_temperature;BME280_humidity;BME280_pressure;Samples;Min_cycle;Max_cycle;Signal;HPM_P1;HPM_P2
2022/09/07 00:01:31;;;;;;;10.15;1.90;;;;;;;19.21;75.37;95879.78;5010805;28;20028;-58
2022/09/07 00:03:57;;;;;;;8.70;2.33;;;;;;;19.19;75.34;95887.97;5024093;28;20029;-59
2022/09/07 00:06:23;;;;;;;4.53;1.58;;;;;;;18.95;76.53;95895.31;4992901;28;20044;-59
2022/09/07 00:08:48;;;;;;;7.40;1.60;;;;;;;18.77;78.11;95898.41;5004360;28;20049;-58
2022/09/07 00:11:16;;;;;;;3.10;1.80;;;;;;;18.70;77.65;95902.84;5010204;28;20496;-59
2022/09/07 00:13:44;;;;;;;3.47;1.33;;;;;;;18.66;77.48;95894.41;5010631;28;20084;-58
2022/09/07 00:16:15;;;;;;;5.35;1.80;;;;;;;18.63;78.71;95892.09;4999988;28;20122;-58
2022/09/07 00:18:41;;;;;;;4.95;1.77;;;;;;;18.57;78.80;95893.69;5010967;28;20038;-58
2022/09/07 00:21:08;;;;;;;4.22;1.42;;;;;;;18.58;78.34;95900.66;5022854;28;20053;-58
2022/09/07 00:23:36;;;;;;;4.03;1.75;;;;;;;18.69;77.96;95893.22;5009977;28;20105;-58
2022/09/07 00:26:04;;;;;;;4.93;1.25;;;;;;;18.68;78.92;95895.03;5010681;28;20045;-58
2022/09/07 00:28:30;;;;;;;7.78;1.33;;;;;;;18.69;78.70;95895.88;5010801;28;20440;-58
2022/09/07 00:30:55;;;;;;;6.45;1.52;;;;;;;18.71;78.49;95896.50;5010591;28;20034;-58
2022/09/07 00:33:21;;;;;;;4.88;1.50;;;;;;;18.77;78.31;95893.06;5008405;28;20030;-58
2022/09/07 00:35:47;;;;;;;2.63;1.60;;;;;;;18.87;77.82;95898.91;5000256;28;20033;-58
2022/09/07 00:38:12;;;;;;;5.25;1.65;;;;;;;18.85;77.53;95900.13;4995296;28;20061;-57
2022/09/07 00:40:38;;;;;;;3.95;1.50;;;;;;;18.83;77.55;95904.84;4993472;28;20034;-58
2022/09/07 00:43:05;;;;;;;8.77;2.30;;;;;;;18.84;78.64;95904.63;4995757;28;20078;-58
2022/09/07 00:45:30;;;;;;;3.75;1.50;;;;;;;18.81;78.88;95897.00;5001827;28;20030;-59
2022/09/07 00:48:12;;;;;;;3.10;1.48;;;;;;;18.86;78.41;95897.25;5001612;28;20453;-59
2022/09/07 00:50:45;;;;;;;6.05;1.58;;;;;;;18.97;77.72;95897.81;5006160;28;20482;-59
2022/09/07 00:53:24;;;;;;;4.20;1.50;;;;;;;19.00;78.33;95895.59;5009330;28;20523;-59
2022/09/07 00:55:51;;;;;;;5.07;2.25;;;;;;;18.98;78.17;95891.44;5002718;28;20041;-59
2022/09/07 00:58:19;;;;;;;4.82;1.77;;;;;;;18.93;78.27;95891.19;5010099;28;20026;-59
2022/09/07 01:00:46;;;;;;;8.38;1.73;;;;;;;18.92;78.69;95885.03;5010911;28;20033;-59
2022/09/07 01:03:14;;;;;;;4.28;1.92;;;;;;;18.93;79.24;95875.19;5012848;28;20034;-59
2022/09/07 01:06:02;;;;;;;2.83;1.42;;;;;;;18.90;79.71;95879.91;5011922;28;20058;-59
2022/09/07 01:08:28;;;;;;;4.25;1.98;;;;;;;18.93;78.62;95881.34;5010653;28;20049;-59
2022/09/07 01:10:54;;;;;;;3.35;1.58;;;;;;;19.09;76.99;95884.81;5010176;28;20034;-59
2022/09/07 01:13:20;;;;;;;6.80;1.45;;;;;;;19.09;76.50;95880.28;5010320;28;20079;-59
2022/09/07 01:16:11;;;;;;;3.15;1.38;;;;;;;18.99;76.98;95887.78;5009542;28;20025;-59
2022/09/07 01:18:58;;;;;;;4.30;1.50;;;;;;;18.79;78.20;95891.03;5006678;28;20052;-59
2022/09/07 01:21:36;;;;;;;3.33;1.65;;;;;;;18.68;80.99;95892.38;5008102;28;20018;-59
2022/09/07 01:24:29;;;;;;;4.72;1.50;;;;;;;18.59;80.59;95896.97;5008104;28;20133;-59
2022/09/07 01:27:28;;;;;;;8.30;1.60;;;;;;;18.55;78.95;95894.88;5009719;28;20041;-59
2022/09/07 01:30:05;;;;;;;6.53;1.50;;;;;;;18.51;80.29;95901.59;4991625;28;20026;-58
2022/09/07 01:32:40;;;;;;;6.90;1.90;;;;;;;18.51;80.76;95893.59;5009480;28;20026;-59
2022/09/07 01:35:21;;;;;;;5.65;2.13;;;;;;;18.49;80.96;95885.81;5010475;28;20014;-59
2022/09/07 01:38:22;;;;;;;5.28;1.70;;;;;;;18.49;80.40;95883.13;5010205;28;20041;-59
2022/09/07 01:41:13;;;;;;;1.38;1.30;;;;;;;18.49;80.46;95880.47;4990133;28;20501;-58
2022/09/07 01:43:56;;;;;;;2.63;1.55;;;;;;;18.45;81.01;95871.16;5003448;28;20022;-59
2022/09/07 01:46:27;;;;;;;2.72;1.45;;;;;;;18.44;80.83;95880.19;4990823;28;20545;-59
2022/09/07 01:48:56;;;;;;;5.80;1.65;;;;;;;18.40;81.65;95871.75;4990521;28;20022;-59
2022/09/07 01:51:29;;;;;;;2.53;1.77;;;;;;;18.37;82.13;95877.47;4990666;28;20100;-58
2022/09/07 01:54:10;;;;;;;12.32;1.88;;;;;;;18.39;81.82;95872.78;4990481;28;20037;-59
2022/09/07 01:56:41;;;;;;;5.72;1.77;;;;;;;18.40;82.08;95874.41;5000561;28;20112;-59
2022/09/07 01:59:26;;;;;;;6.07;1.50;;;;;;;18.42;82.06;95875.06;5015668;28;20011;-59
2022/09/07 02:02:08;;;;;;;10.30;1.63;;;;;;;18.47;81.02;95871.84;4989996;28;20112;-58
2022/09/07 02:04:41;;;;;;;1.85;1.27;;;;;;;18.47;81.28;95874.50;5004390;28;20041;-59
2022/09/07 02:07:28;;;;;;;2.33;1.35;;;;;;;18.49;82.27;95880.47;5002243;28;20505;-59
2022/09/07 02:10:00;;;;;;;6.00;1.90;;;;;;;18.52;81.05;95873.91;4996359;28;20022;-59
2022/09/07 02:12:35;;;;;;;6.13;1.88;;;;;;;18.52;81.94;95868.59;4997746;28;20404;-59
2022/09/07 02:15:14;;;;;;;6.25;2.95;;;;;;;18.54;81.64;95874.56;5008401;28;20022;-59
2022/09/07 02:17:48;;;;;;;8.80;2.53;;;;;;;18.59;80.95;95872.19;5009214;28;20048;-59
2022/09/07 02:20:25;;;;;;;5.30;1.67;;;;;;;18.67;79.67;95871.22;5008541;28;20021;-59
2022/09/07 02:22:57;;;;;;;3.40;1.60;;;;;;;18.67;79.50;95860.53;5008355;28;20045;-59
2022/09/07 02:25:31;;;;;;;4.78;2.13;;;;;;;18.63;80.21;95860.13;5008725;28;20026;-59
2022/09/07 02:28:08;;;;;;;3.22;1.80;;;;;;;18.61;80.90;95854.97;5008680;28;20033;-59
2022/09/07 02:30:34;;;;;;;4.85;1.67;;;;;;;18.57;81.09;95850.22;5008997;28;20041;-59
2022/09/07 02:32:59;;;;;;;2.28;1.52;;;;;;;18.57;81.69;95853.69;4990378;28;20110;-59
2022/09/07 02:35:25;;;;;;;4.00;1.65;;;;;;;18.52;82.32;95857.94;4992896;28;20459;-59
2022/09/07 02:37:51;;;;;;;6.60;1.85;;;;;;;18.54;81.69;95851.41;5008402;28;20037;-59
2022/09/07 02:40:17;;;;;;;3.78;1.80;;;;;;;18.50;81.77;95849.28;5005032;28;20537;-59
2022/09/07 02:42:46;;;;;;;5.32;1.45;;;;;;;18.51;82.15;95845.63;4994762;28;20033;-59
2022/09/07 02:45:14;;;;;;;6.22;1.50;;;;;;;18.53;82.57;95846.25;4994514;28;20027;-59
2022/09/07 02:48:05;;;;;;;4.80;1.60;;;;;;;18.55;81.65;95850.38;4994300;28;20455;-59
2022/09/07 02:51:09;;;;;;;5.15;1.50;;;;;;;18.49;80.68;95844.97;4994694;28;20038;-59
2022/09/07 02:54:02;;;;;;;4.53;1.52;;;;;;;18.39;85.73;95832.78;4963530;28;20073;-59
2022/09/07 02:56:33;;;;;;;2.08;1.40;;;;;;;18.17;91.42;95824.75;4996069;28;20022;-59
2022/09/07 02:59:35;;;;;;;5.13;1.98;;;;;;;18.05;93.62;95815.56;4994198;28;20526;-59
2022/09/07 03:02:05;;;;;;;12.68;2.95;;;;;;;17.89;93.64;95816.56;4992725;28;20034;-59
2022/09/07 03:05:04;;;;;;;11.23;2.65;;;;;;;17.70;97.46;95818.78;4994006;28;20580;-59
2022/09/07 03:07:35;;;;;;;15.60;3.22;;;;;;;17.54;100.00;95810.97;4993566;28;20046;-59
2022/09/07 03:10:03;;;;;;;9.05;3.10;;;;;;;17.41;100.00;95812.44;4993161;28;20462;-60
2022/09/07 03:12:45;;;;;;;8.88;2.33;;;;;;;17.47;100.00;95817.03;5001079;28;20670;-60
2022/09/07 03:15:19;;;;;;;7.30;2.80;;;;;;;17.35;100.00;95820.31;5003889;28;20022;-59
2022/09/07 03:17:45;;;;;;;8.07;2.50;;;;;;;17.33;100.00;95823.97;5011767;28;20068;-59
2022/09/07 03:20:11;;;;;;;8.18;2.72;;;;;;;17.30;100.00;95823.50;5011774;28;20033;-59
2022/09/07 03:22:37;;;;;;;11.15;2.60;;;;;;;17.36;100.00;95822.81;5011943;28;20104;-59
2022/09/07 03:25:03;;;;;;;7.63;2.20;;;;;;;17.30;100.00;95824.34;5011284;28;20018;-59
2022/09/07 03:27:30;;;;;;;11.77;2.90;;;;;;;17.31;100.00;95826.00;5003493;28;20165;-59
2022/09/07 03:29:56;;;;;;;6.43;2.42;;;;;;;17.27;100.00;95819.41;5008452;28;20083;-58
2022/09/07 03:32:22;;;;;;;8.00;2.47;;;;;;;17.24;100.00;95817.09;5001678;28;20033;-59
2022/09/07 03:34:47;;;;;;;5.03;2.20;;;;;;;17.23;100.00;95819.94;4992497;28;20022;-59
2022/09/07 03:37:13;;;;;;;7.22;2.30;;;;;;;17.23;100.00;95828.72;4992823;28;20161;-59
2022/09/07 03:39:39;;;;;;;6.90;2.17;;;;;;;17.17;100.00;95814.34;4999256;28;20286;-59
2022/09/07 03:42:04;;;;;;;3.42;2.10;;;;;;;17.14;100.00;95803.22;4992127;28;20045;-59
2022/09/07 03:44:30;;;;;;;5.63;2.45;;;;;;;17.17;100.00;95794.88;4992793;28;20022;-59
2022/09/07 03:46:55;;;;;;;6.18;2.00;;;;;;;17.17;100.00;95797.53;4993178;28;20022;-59
2022/09/07 03:49:20;;;;;;;4.57;2.20;;;;;;;17.16;100.00;95804.69;5005921;28;20038;-59
2022/09/07 03:51:46;;;;;;;7.03;2.60;;;;;;;17.12;100.00;95797.25;4993693;28;20018;-57
2022/09/07 03:54:11;;;;;;;6.50;2.25;;;;;;;17.09;100.00;95806.41;4995747;28;20105;-59
2022/09/07 03:56:37;;;;;;;3.42;2.33;;;;;;;17.08;100.00;95804.75;4995038;28;20137;-59
2022/09/07 03:59:02;;;;;;;6.88;2.60;;;;;;;17.06;100.00;95805.97;4999626;28;20029;-59
2022/09/07 04:01:28;;;;;;;6.07;2.38;;;;;;;17.08;100.00;95801.28;4994700;28;20035;-59
2022/09/07 04:03:57;;;;;;;5.90;2.30;;;;;;;17.16;100.00;95798.53;4998484;28;20057;-59
2022/09/07 04:06:24;;;;;;;6.07;2.20;;;;;;;17.21;100.00;95809.44;5005256;28;20482;-59
2022/09/07 04:08:49;;;;;;;5.80;2.33;;;;;;;17.16;100.00;95806.50;5004699;28;20056;-59
2022/09/07 04:11:17;;;;;;;7.22;2.17;;;;;;;17.07;100.00;95800.44;5001448;28;20042;-59
2022/09/07 04:13:43;;;;;;;4.05;2.13;;;;;;;16.96;100.00;95796.34;5010105;28;20026;-59
2022/09/07 04:16:18;;;;;;;6.47;2.60;;;;;;;16.93;100.00;95785.25;5021345;28;20026;-59
2022/09/07 04:18:43;;;;;;;2.83;2.03;;;;;;;16.97;100.00;95782.03;5008461;28;20036;-59
2022/09/07 04:21:09;;;;;;;7.03;2.10;;;;;;;16.92;100.00;95783.63;4991656;28;20034;-59
2022/09/07 04:23:42;;;;;;;3.25;2.75;;;;;;;16.85;100.00;95773.66;5009007;28;20362;-58
2022/09/07 04:26:32;;;;;;;4.32;2.50;;;;;;;16.82;100.00;95762.59;5002648;28;20109;-59
2022/09/07 04:28:59;;;;;;;3.20;2.05;;;;;;;16.79;100.00;95757.59;4993525;28;20120;-59
2022/09/07 04:31:25;;;;;;;8.05;2.70;;;;;;;16.74;100.00;95758.97;5004637;28;20114;-59
2022/09/07 04:33:51;;;;;;;9.38;2.95;;;;;;;16.64;100.00;95744.28;4991395;28;20480;-59
2022/09/07 04:36:18;;;;;;;4.15;2.22;;;;;;;16.60;100.00;95746.47;4988836;28;20528;-59
2022/09/07 04:38:44;;;;;;;7.55;2.33;;;;;;;16.65;100.00;95741.44;5010784;28;20370;-58
2022/09/07 04:41:12;;;;;;;6.60;2.28;;;;;;;16.61;100.00;95730.34;5020421;28;20041;-58
2022/09/07 04:43:39;;;;;;;4.40;2.40;;;;;;;16.63;100.00;95724.88;5001198;28;20505;-59
2022/09/07 04:46:07;;;;;;;5.43;2.10;;;;;;;16.67;100.00;95727.97;5010242;28;20030;-59
2022/09/07 04:48:33;;;;;;;5.07;2.50;;;;;;;16.59;100.00;95732.34;5010777;28;20547;-59
2022/09/07 04:51:04;;;;;;;5.45;2.05;;;;;;;16.58;100.00;95729.91;5009687;28;20117;-59
2022/09/07 04:53:30;;;;;;;7.90;2.25;;;;;;;17.04;100.00;95729.84;5000132;28;20450;-59
2022/09/07 04:55:57;;;;;;;3.53;2.38;;;;;;;16.68;100.00;95721.66;4992723;28;20088;-59
2022/09/07 04:58:22;;;;;;;5.30;2.90;;;;;;;16.43;100.00;95714.72;4996583;28;20034;-59
2022/09/07 05:00:48;;;;;;;6.72;2.78;;;;;;;16.27;100.00;95713.03;5002350;28;20032;-59
2022/09/07 05:03:13;;;;;;;4.22;2.42;;;;;;;16.28;100.00;95725.28;4997520;28;20031;-58
2022/09/07 05:05:38;;;;;;;6.13;2.38;;;;;;;16.28;100.00;95730.59;5002403;28;20052;-59
2022/09/07 05:08:04;;;;;;;5.30;2.55;;;;;;;16.31;100.00;95729.41;5004354;28;20038;-59
2022/09/07 05:10:29;;;;;;;3.05;2.60;;;;;;;16.27;100.00;95734.28;4998100;28;20026;-59
2022/09/07 05:12:55;;;;;;;5.53;2.95;;;;;;;16.26;100.00;95723.81;5004688;28;20650;-59
2022/09/07 05:15:20;;;;;;;4.97;2.40;;;;;;;16.17;100.00;95731.00;4997126;28;20045;-59
2022/09/07 05:17:45;;;;;;;8.18;2.72;;;;;;;16.18;100.00;95719.38;5010335;28;20108;-59
2022/09/07 05:20:11;;;;;;;4.93;2.92;;;;;;;16.12;100.00;95728.06;5009313;28;20408;-59
2022/09/07 05:22:39;;;;;;;8.10;3.83;;;;;;;16.17;100.00;95745.13;5000381;28;20026;-59
2022/09/07 05:25:06;;;;;;;4.68;2.63;;;;;;;16.21;100.00;95750.06;5003585;28;20371;-58
2022/09/07 05:27:31;;;;;;;4.50;2.60;;;;;;;16.26;100.00;95753.03;4994401;28;20027;-59
2022/09/07 05:29:57;;;;;;;7.47;2.28;;;;;;;16.20;100.00;95757.22;4998069;28;20037;-59
2022/09/07 05:32:22;;;;;;;9.02;2.78;;;;;;;16.24;100.00;95758.50;4995375;28;20035;-59
2022/09/07 05:34:48;;;;;;;10.10;2.50;;;;;;;16.33;100.00;95749.50;4998057;28;20606;-59
2022/09/07 05:37:13;;;;;;;4.50;2.50;;;;;;;16.42;100.00;95746.78;4995554;28;20534;-58
2022/09/07 05:39:39;;;;;;;7.88;2.28;;;;;;;16.42;100.00;95742.28;4998560;28;20033;-58
2022/09/07 05:42:04;;;;;;;3.90;2.55;;;;;;;16.45;100.00;95763.19;4995569;28;20079;-59
2022/09/07 05:44:30;;;;;;;4.18;2.60;;;;;;;16.41;100.00;95769.03;5003473;28;20662;-59
2022/09/07 05:46:56;;;;;;;15.85;3.63;;;;;;;16.34;100.00;95774.22;4994259;28;20030;-59
2022/09/07 05:49:22;;;;;;;5.93;2.30;;;;;;;16.33;100.00;95765.44;4994850;28;20482;-59
2022/09/07 05:51:47;;;;;;;3.00;2.20;;;;;;;16.36;100.00;95755.44;4992135;28;20501;-59
2022/09/07 05:54:13;;;;;;;2.35;2.20;;;;;;;16.39;100.00;95763.06;4993140;28;20053;-59
2022/09/07 05:56:38;;;;;;;7.13;2.70;;;;;;;16.44;100.00;95768.66;5003276;28;20033;-59
2022/09/07 05:59:04;;;;;;;3.53;2.70;;;;;;;16.47;100.00;95760.38;4993077;28;20042;-59
2022/09/07 06:01:30;;;;;;;3.25;2.22;;;;;;;16.45;100.00;95771.16;4991578;28;20069;-59
2022/09/07 06:03:56;;;;;;;6.80;3.28;;;;;;;16.47;100.00;95769.16;5004404;28;20034;-59
2022/09/07 06:06:21;;;;;;;8.90;2.42;;;;;;;16.47;100.00;95781.63;5002950;28;20030;-59
2022/09/07 06:08:51;;;;;;;7.03;3.20;;;;;;;16.42;100.00;95783.97;4994222;28;20433;-59
2022/09/07 06:11:22;;;;;;;12.75;3.17;;;;;;;16.37;100.00;95791.66;4990645;28;20030;-59
2022/09/07 06:13:48;;;;;;;2.72;2.53;;;;;;;16.43;100.00;95785.63;5007184;28;20050;-59
2022/09/07 06:16:15;;;;;;;5.32;2.72;;;;;;;16.51;100.00;95788.25;4998850;28;20537;-59
2022/09/07 06:18:43;;;;;;;8.27;3.00;;;;;;;16.48;100.00;95793.91;5002783;28;20398;-59
2022/09/07 06:21:20;;;;;;;6.00;2.90;;;;;;;16.51;100.00;95798.03;5000632;28;20404;-59
2022/09/07 06:23:47;;;;;;;4.80;2.70;;;;;;;16.63;100.00;95796.63;5007704;28;20454;-59
2022/09/07 06:26:13;;;;;;;6.45;2.70;;;;;;;16.72;100.00;95806.19;5008716;28;20141;-60
2022/09/07 06:28:41;;;;;;;3.45;3.08;;;;;;;16.77;100.00;95813.63;5007815;28;20033;-59
2022/09/07 06:31:12;;;;;;;7.63;3.80;;;;;;;16.83;100.00;95812.09;5008459;28;20069;-59
2022/09/07 06:33:39;;;;;;;12.48;4.10;;;;;;;16.88;100.00;95810.53;4991794;28;20019;-59
2022/09/07 06:36:09;;;;;;;3.65;3.30;;;;;;;17.01;100.00;95822.44;4995323;28;20026;-59
2022/09/07 06:38:36;;;;;;;5.95;2.42;;;;;;;17.10;100.00;95812.56;4990036;28;20030;-59
2022/09/07 06:41:01;;;;;;;6.57;2.80;;;;;;;17.04;100.00;95814.94;4989525;28;20069;-59
2022/09/07 06:43:27;;;;;;;3.05;2.58;;;;;;;17.04;100.00;95806.97;4992302;28;20501;-59
2022/09/07 06:45:53;;;;;;;8.00;2.85;;;;;;;17.11;100.00;95815.03;5004320;28;20024;-59
2022/09/07 06:48:19;;;;;;;5.47;2.40;;;;;;;17.00;100.00;95812.81;4990276;28;20030;-59
2022/09/07 06:51:00;;;;;;;4.28;2.85;;;;;;;16.90;100.00;95807.72;4999196;28;20651;-59
2022/09/07 06:53:29;;;;;;;4.80;2.85;;;;;;;16.92;100.00;95800.38;5003187;28;20038;-59
2022/09/07 06:55:54;;;;;;;4.55;2.78;;;;;;;17.01;100.00;95795.84;5006390;28;20057;-59
2022/09/07 06:58:20;;;;;;;4.13;2.70;;;;;;;17.10;100.00;95802.72;5007493;28;20058;-58
2022/09/07 07:00:45;;;;;;;6.43;2.90;;;;;;;17.18;100.00;95808.00;5006238;28;20030;-59
2022/09/07 07:03:11;;;;;;;8.80;2.90;;;;;;;17.32;100.00;95802.88;5005608;28;20022;-59
2022/09/07 07:05:36;;;;;;;3.40;2.40;;;;;;;17.36;100.00;95798.03;5006479;28;20100;-59
2022/09/07 07:08:02;;;;;;;9.32;2.92;;;;;;;17.27;100.00;95791.94;4992218;28;20546;-63
2022/09/07 07:10:27;;;;;;;8.50;2.60;;;;;;;17.36;100.00;95793.53;4999390;28;20022;-63
2022/09/07 07:12:56;;;;;;;9.35;3.20;;;;;;;17.40;100.00;95792.16;4998656;28;20084;-63
2022/09/07 07:15:26;;;;;;;8.40;2.88;;;;;;;17.57;100.00;95792.81;4994287;28;20061;-63
2022/09/07 07:17:51;;;;;;;2.92;2.50;;;;;;;17.72;100.00;95800.78;5007396;28;20034;-63
2022/09/07 07:20:17;;;;;;;5.78;2.50;;;;;;;17.79;100.00;95797.38;4994930;28;20044;-62
2022/09/07 07:22:42;;;;;;;3.92;2.70;;;;;;;18.06;100.00;95801.25;5002186;28;20037;-63
2022/09/07 07:25:07;;;;;;;5.82;2.15;;;;;;;18.27;100.00;95800.47;5000099;28;20026;-62
2022/09/07 07:27:33;;;;;;;6.18;2.67;;;;;;;18.43;100.00;95795.91;4991729;28;20474;-62
2022/09/07 07:29:58;;;;;;;2.88;2.50;;;;;;;18.39;100.00;95797.31;4992276;28;20513;-63
2022/09/07 07:32:24;;;;;;;8.38;2.85;;;;;;;18.43;100.00;95801.25;4992444;28;20033;-63
2022/09/07 07:34:49;;;;;;;12.32;2.72;;;;;;;18.44;100.00;95814.38;4999554;28;20032;-62
2022/09/07 07:37:15;;;;;;;6.35;3.13;;;;;;;18.42;100.00;95810.25;4995760;28;20026;-62
2022/09/07 07:39:41;;;;;;;6.35;2.47;;;;;;;18.61;98.99;95804.31;5011445;28;20029;-61
2022/09/07 07:42:07;;;;;;;13.43;6.10;;;;;;;18.73;97.80;95806.47;5001662;28;20042;-62
2022/09/07 07:44:32;;;;;;;16.48;5.72;;;;;;;19.02;95.31;95804.72;5000505;28;20100;-62
2022/09/07 07:46:58;;;;;;;13.00;6.60;;;;;;;19.26;94.55;95802.63;5004563;28;20041;-61
2022/09/07 07:49:23;;;;;;;7.05;4.50;;;;;;;19.28;92.94;95806.78;5003200;28;20038;-63
2022/09/07 07:51:49;;;;;;;5.72;3.28;;;;;;;19.36;93.18;95800.47;4993836;28;20474;-62
2022/09/07 07:54:14;;;;;;;3.80;2.20;;;;;;;19.50;92.02;95805.88;4993048;28;20022;-63
2022/09/07 07:56:40;;;;;;;3.40;2.00;;;;;;;19.62;90.89;95788.31;4997546;28;20105;-62
2022/09/07 07:59:05;;;;;;;6.32;1.70;;;;;;;19.60;89.88;95791.16;4997050;28;20105;-62
2022/09/07 08:01:30;;;;;;;3.65;1.75;;;;;;;19.78;90.12;95797.84;4993644;28;20093;-62
2022/09/07 08:03:56;;;;;;;5.35;2.50;;;;;;;20.09;86.90;95796.56;4994362;28;20034;-62
2022/09/07 08:06:21;;;;;;;3.75;2.10;;;;;;;20.58;84.39;95791.97;5005620;28;20465;-61
2022/09/07 08:08:47;;;;;;;3.42;2.30;;;;;;;20.90;83.78;95788.75;5006538;28;20046;-62
2022/09/07 08:11:16;;;;;;;6.70;2.10;;;;;;;21.24;81.57;95791.44;5008279;28;20084;-62
2022/09/07 08:13:43;;;;;;;3.40;1.83;;;;;;;21.44;78.32;95776.19;5005895;28;20045;-62
2022/09/07 08:16:09;;;;;;;2.72;1.90;;;;;;;21.46;78.69;95773.31;5007957;28;20116;-62
2022/09/07 08:18:36;;;;;;;8.02;2.40;;;;;;;21.49;77.62;95769.38;5001825;28;20050;-61
2022/09/07 08:21:10;;;;;;;6.30;2.10;;;;;;;21.54;76.03;95769.56;4994966;28;20030;-63
2022/09/07 08:23:36;;;;;;;7.35;2.25;;;;;;;21.67;76.83;95766.91;4998050;28;20052;-62
2022/09/07 08:26:02;;;;;;;7.65;2.92;;;;;;;21.96;76.72;95759.38;4993237;28;20031;-62
2022/09/07 08:28:29;;;;;;;5.43;2.08;;;;;;;22.18;75.47;95751.03;5005592;28;20521;-63
2022/09/07 08:30:56;;;;;;;3.58;1.92;;;;;;;22.54;75.10;95752.31;4991503;28;20069;-62
2022/09/07 08:33:22;;;;;;;6.93;2.45;;;;;;;23.17;72.92;95747.91;4992079;28;20548;-62
2022/09/07 08:35:55;;;;;;;5.30;2.15;;;;;;;23.53;68.67;95734.78;5004917;28;20022;-62
2022/09/07 08:38:21;;;;;;;7.50;2.40;;;;;;;23.46;68.12;95732.16;4994409;28;20045;-61
2022/09/07 08:40:47;;;;;;;8.48;2.63;;;;;;;23.18;70.18;95730.75;5000518;28;20129;-61
2022/09/07 08:43:12;;;;;;;4.07;2.28;;;;;;;23.31;73.23;95726.31;5007964;28;20044;-60
2022/09/07 08:45:47;;;;;;;7.35;2.38;;;;;;;23.18;75.27;95717.31;5007222;28;20103;-61
2022/09/07 08:48:17;;;;;;;7.45;2.78;;;;;;;23.22;75.39;95720.41;5004540;28;20033;-61
2022/09/07 08:50:58;;;;;;;6.05;3.10;;;;;;;23.54;72.29;95723.00;4992718;28;20041;-62
2022/09/07 08:53:24;;;;;;;6.82;2.65;;;;;;;23.68;68.60;95725.53;4994291;28;20080;-62
2022/09/07 08:55:57;;;;;;;6.13;2.28;;;;;;;23.58;68.36;95734.13;4992430;28;20041;-62
2022/09/07 08:58:31;;;;;;;5.88;2.30;;;;;;;23.56;69.09;95741.59;4991243;28;20032;-62
2022/09/07 09:00:57;;;;;;;7.47;2.40;;;;;;;23.40;69.27;95738.44;4994541;28;20026;-62
2022/09/07 09:03:29;;;;;;;5.82;2.60;;;;;;;23.23;71.13;95740.84;4983776;28;20030;-61
2022/09/07 09:06:03;;;;;;;10.18;2.67;;;;;;;23.41;71.36;95736.53;4987392;28;20029;-61
2022/09/07 09:09:06;;;;;;;4.35;2.10;;;;;;;23.56;65.49;95728.16;5003421;28;20042;-60
2022/09/07 09:11:34;;;;;;;2.20;1.92;;;;;;;23.51;63.61;95717.22;5007831;28;20026;-61
2022/09/07 09:14:02;;;;;;;3.53;2.13;;;;;;;23.12;66.84;95715.53;5000734;28;20041;-60
2022/09/07 09:16:34;;;;;;;5.57;2.20;;;;;;;22.98;67.85;95709.44;5003188;28;20022;-62
2022/09/07 09:19:36;;;;;;;6.50;2.15;;;;;;;22.92;67.26;95712.19;5001812;28;20105;-61
2022/09/07 09:22:17;;;;;;;6.88;2.42;;;;;;;22.84;66.22;95713.28;5002549;28;20080;-61
2022/09/07 09:25:29;;;;;;;6.13;2.33;;;;;;;22.91;67.68;95705.19;4999762;28;20023;-61
2022/09/07 09:27:54;;;;;;;4.45;2.50;;;;;;;23.18;66.09;95703.06;4999482;28;20032;-60
2022/09/07 09:30:21;;;;;;;7.20;2.72;;;;;;;23.16;70.07;95691.72;4996910;28;20041;-60
2022/09/07 09:32:51;;;;;;;5.88;1.95;;;;;;;23.27;70.07;95696.41;4998478;28;20034;-61
2022/09/07 09:35:38;;;;;;;5.95;2.38;;;;;;;23.30;66.95;95692.44;5001461;28;20173;-61
2022/09/07 09:38:03;;;;;;;5.18;2.28;;;;;;;23.39;67.53;95676.84;4985541;28;20058;-61
2022/09/07 09:40:34;;;;;;;10.80;2.60;;;;;;;23.64;67.47;95675.94;4997080;28;20065;-62
2022/09/07 09:43:05;;;;;;;8.13;2.50;;;;;;;23.58;64.08;95675.00;4996583;28;20618;-61
2022/09/07 09:45:41;;;;;;;3.53;2.30;;;;;;;23.40;63.49;95676.66;4995758;28;20108;-61
2022/09/07 09:48:16;;;;;;;9.55;2.65;;;;;;;23.48;64.75;95666.63;4996644;28;20509;-61
2022/09/07 09:50:48;;;;;;;4.93;2.17;;;;;;;23.63;63.14;95677.84;4995901;28;20564;-61
2022/09/07 09:53:32;;;;;;;8.32;2.85;;;;;;;23.60;62.24;95670.22;4995593;28;20092;-61
2022/09/07 09:56:00;;;;;;;3.97;2.20;;;;;;;23.65;64.01;95673.06;5000424;28;20091;-62
2022/09/07 09:58:44;;;;;;;11.38;2.60;;;;;;;23.68;66.78;95672.59;4998070;28;20039;-62
2022/09/07 10:01:33;;;;;;;6.50;2.15;;;;;;;23.79;65.85;95672.91;5000778;28;20113;-61
2022/09/07 10:04:17;;;;;;;7.55;2.30;;;;;;;23.89;63.93;95663.25;4996700;28;20056;-62
2022/09/07 10:06:54;;;;;;;7.60;2.42;;;;;;;23.88;61.93;95660.78;4997611;28;20038;-61
2022/09/07 10:09:23;;;;;;;6.57;2.50;;;;;;;24.07;61.59;95655.41;4991483;28;20509;-62
2022/09/07 10:11:57;;;;;;;5.75;1.92;;;;;;;24.15;61.62;95655.06;4992597;28;20026;-62
2022/09/07 10:14:29;;;;;;;5.50;2.27;;;;;;;24.54;58.30;95646.63;4996586;28;20029;-62
2022/09/07 10:16:55;;;;;;;4.97;1.90;;;;;;;24.38;60.38;95656.16;4994425;28;20093;-62
2022/09/07 10:19:41;;;;;;;5.30;2.15;;;;;;;24.49;60.17;95641.09;4993193;28;20022;-62
2022/09/07 10:22:37;;;;;;;9.00;2.00;;;;;;;24.61;58.46;95641.97;5002463;28;20033;-62
2022/09/07 10:25:25;;;;;;;6.38;2.60;;;;;;;24.69;59.13;95635.41;5000548;28;20076;-62
2022/09/07 10:28:16;;;;;;;8.25;2.33;;;;;;;24.82;56.71;95634.41;5002382;28;20030;-61
2022/09/07 10:31:03;;;;;;;7.00;2.28;;;;;;;25.18;55.74;95632.47;5003905;28;20572;-58
2022/09/07 10:33:46;;;;;;;4.50;2.00;;;;;;;25.16;56.69;95627.34;5009124;28;20045;-60
2022/09/07 10:36:41;;;;;;;8.30;2.65;;;;;;;25.25;56.16;95622.41;5004235;28;20464;-60
2022/09/07 10:39:13;;;;;;;7.05;2.25;;;;;;;25.60;54.05;95616.13;4997059;28;20030;-60
2022/09/07 10:42:03;;;;;;;5.60;2.40;;;;;;;25.36;54.57;95607.28;5001348;28;20034;-60
2022/09/07 10:44:50;;;;;;;5.05;2.15;;;;;;;25.66;53.48;95608.97;5009101;28;20092;-60
2022/09/07 10:48:00;;;;;;;5.15;2.83;;;;;;;25.72;53.22;95607.22;5005892;28;20101;-60
2022/09/07 10:50:33;;;;;;;8.23;2.85;;;;;;;25.71;53.90;95602.88;4972370;28;20523;-60
2022/09/07 10:53:16;;;;;;;5.45;2.40;;;;;;;25.65;52.94;95591.16;4991744;28;20081;-60
2022/09/07 10:55:57;;;;;;;6.88;2.20;;;;;;;25.78;52.94;95594.66;4995441;28;20037;-60
2022/09/07 10:58:31;;;;;;;10.80;2.25;;;;;;;25.96;51.58;95594.44;5005418;28;20022;-61
2022/09/07 11:01:31;;;;;;;3.60;1.88;;;;;;;26.16;52.08;95580.53;4999574;28;20046;-60
2022/09/07 11:04:07;;;;;;;3.90;2.10;;;;;;;26.43;51.36;95579.06;5001470;28;20057;-59
2022/09/07 11:06:39;;;;;;;7.28;2.80;;;;;;;26.75;50.98;95564.97;4993816;28;20034;-60
2022/09/07 11:09:32;;;;;;;5.82;2.72;;;;;;;26.89;50.87;95560.06;4994288;28;20042;-60
2022/09/07 11:12:01;;;;;;;4.85;2.50;;;;;;;26.78;50.28;95550.16;5000811;28;20040;-61
2022/09/07 11:14:28;;;;;;;4.28;2.20;;;;;;;27.11;50.91;95548.44;5011561;28;20045;-61
2022/09/07 11:17:01;;;;;;;5.00;2.05;;;;;;;27.04;49.49;95540.53;5013748;28;20038;-60
2022/09/07 11:19:39;;;;;;;6.78;3.00;;;;;;;27.14;49.08;95524.47;5019731;28;20091;-60
2022/09/07 11:22:21;;;;;;;5.35;2.20;;;;;;;27.38;45.92;95523.38;5015543;28;20033;-60
2022/09/07 11:24:52;;;;;;;6.28;2.20;;;;;;;27.38;48.07;95512.56;5004229;28;20026;-61
2022/09/07 11:27:30;;;;;;;7.38;2.15;;;;;;;27.78;47.30;95514.09;4992902;28;20023;-60
2022/09/07 11:30:04;;;;;;;4.28;2.00;;;;;;;27.84;45.89;95509.53;5004021;28;20393;-61
2022/09/07 11:32:36;;;;;;;3.10;1.98;;;;;;;28.10;47.56;95512.47;5011998;28;20029;-60
2022/09/07 11:35:15;;;;;;;10.73;4.80;;;;;;;27.93;46.80;95499.88;5011229;28;20040;-61
2022/09/07 11:37:58;;;;;;;5.07;2.50;;;;;;;28.62;44.95;95493.91;5004122;28;20023;-61
2022/09/07 11:40:38;;;;;;;4.80;1.88;;;;;;;28.75;45.42;95504.28;5003222;28;20041;-60
2022/09/07 11:43:23;;;;;;;5.13;2.00;;;;;;;29.32;39.03;95499.13;5002736;28;20053;-61
2022/09/07 11:46:23;;;;;;;4.43;2.05;;;;;;;29.37;39.08;95485.59;4993282;28;20031;-60
2022/09/07 11:48:54;;;;;;;4.75;1.77;;;;;;;29.58;37.76;95486.47;4999454;28;20034;-60
2022/09/07 11:51:22;;;;;;;5.13;1.80;;;;;;;29.73;37.51;95483.00;5000202;28;20043;-60